createdAt,value
2023-12-22T00:02:26.741Z,5.30
2023-12-22T00:04:53.441Z,5.30
2023-12-22T00:07:21.265Z,5.30
2023-12-22T00:09:48.033Z,5.30
2023-12-22T00:12:14.649Z,5.40
2023-12-22T00:14:41.493Z,5.40
2023-12-22T00:17:08.717Z,5.50
2023-12-22T00:19:35.396Z,5.40
2023-12-22T00:22:04.088Z,5.20
2023-12-22T00:24:31.077Z,5.40
2023-12-22T00:26:57.766Z,5.40
2023-12-22T00:29:24.392Z,5.30
2023-12-22T00:31:51.084Z,5.30
2023-12-22T00:34:17.809Z,5.30
2023-12-22T00:36:45.674Z,5.20
2023-12-22T00:39:12.580Z,5.20
2023-12-22T00:41:43.014Z,5.20
2023-12-22T00:44:09.725Z,5.20
2023-12-22T00:46:36.383Z,5.10
2023-12-22T00:49:03.062Z,4.90
2023-12-22T00:51:29.716Z,4.70
2023-12-22T00:53:56.408Z,4.60
2023-12-22T00:56:23.038Z,4.40
2023-12-22T00:58:55.396Z,4.40
2023-12-22T01:01:28.675Z,4.30
2023-12-22T01:03:55.438Z,4.30
2023-12-22T01:06:24.231Z,4.30
2023-12-22T01:08:52.215Z,4.40
2023-12-22T01:11:19.002Z,4.40
2023-12-22T01:13:45.719Z,4.40
2023-12-22T01:16:12.409Z,4.50
2023-12-22T01:18:43.531Z,4.40
2023-12-22T01:21:10.264Z,4.40
2023-12-22T01:23:36.884Z,4.40
2023-12-22T01:26:03.871Z,4.40
2023-12-22T01:28:30.532Z,4.40
2023-12-22T01:30:57.162Z,4.50
2023-12-22T01:33:23.828Z,4.40
2023-12-22T01:35:51.885Z,4.40
2023-12-22T01:38:19.081Z,4.40
2023-12-22T01:40:46.807Z,4.40
2023-12-22T01:43:14.560Z,4.40
2023-12-22T01:45:44.637Z,4.40
2023-12-22T01:48:11.876Z,4.40
2023-12-22T01:50:40.165Z,4.40
2023-12-22T01:53:07.047Z,4.40
2023-12-22T01:55:34.373Z,4.40
2023-12-22T01:58:01.719Z,4.50
2023-12-22T02:00:28.509Z,4.40
2023-12-22T02:02:55.236Z,4.40
2023-12-22T02:05:22.007Z,4.40
2023-12-22T02:07:49.105Z,4.50
2023-12-22T02:10:16.078Z,4.40
2023-12-22T02:12:43.734Z,4.40
2023-12-22T02:15:10.842Z,4.40
2023-12-22T02:18:06.025Z,4.50
2023-12-22T02:20:33.290Z,4.50
2023-12-22T02:23:02.281Z,4.50
2023-12-22T02:25:28.975Z,4.50
2023-12-22T02:28:03.688Z,4.40
2023-12-22T02:30:53.902Z,4.40
2023-12-22T02:33:24.003Z,4.40
2023-12-22T02:35:52.128Z,4.40
2023-12-22T02:38:20.427Z,4.40
2023-12-22T02:40:47.138Z,4.30
2023-12-22T02:43:13.875Z,4.30
2023-12-22T02:45:40.825Z,4.40
2023-12-22T02:48:07.937Z,4.40
2023-12-22T02:50:34.669Z,4.30
2023-12-22T02:53:01.413Z,4.30
2023-12-22T02:55:28.354Z,4.30
2023-12-22T02:57:54.981Z,4.30
2023-12-22T03:00:21.850Z,4.30
2023-12-22T03:02:48.478Z,4.30
2023-12-22T03:05:15.318Z,4.30
2023-12-22T03:07:42.067Z,4.30
2023-12-22T03:10:09.031Z,4.30
2023-12-22T03:12:35.651Z,4.30
2023-12-22T03:15:04.995Z,4.30
2023-12-22T03:17:34.028Z,4.30
2023-12-22T03:20:00.865Z,4.30
2023-12-22T03:22:27.605Z,4.30
2023-12-22T03:24:54.235Z,4.40
2023-12-22T03:27:21.245Z,4.40
2023-12-22T03:29:47.925Z,4.40
2023-12-22T03:32:14.518Z,4.40
2023-12-22T03:34:42.398Z,4.50
2023-12-22T03:37:09.069Z,4.50
2023-12-22T03:39:35.733Z,4.50
2023-12-22T03:42:02.370Z,4.50
2023-12-22T03:44:28.979Z,4.50
2023-12-22T03:46:55.759Z,4.50
2023-12-22T03:49:22.509Z,4.50
2023-12-22T03:51:49.196Z,4.60
2023-12-22T03:54:18.183Z,4.60
2023-12-22T03:56:45.323Z,4.60
2023-12-22T03:59:11.988Z,4.60
2023-12-22T04:01:40.116Z,4.60
2023-12-22T04:04:06.867Z,4.60
2023-12-22T04:06:33.574Z,4.60
2023-12-22T04:09:00.284Z,4.60
2023-12-22T04:11:26.933Z,4.60
2023-12-22T04:13:53.613Z,4.60
2023-12-22T04:16:20.295Z,4.60
2023-12-22T04:18:47.051Z,4.60
2023-12-22T04:21:13.680Z,4.50
2023-12-22T04:23:40.318Z,4.50
2023-12-22T04:26:07.082Z,4.50
2023-12-22T04:28:33.823Z,4.50
2023-12-22T04:31:00.519Z,4.50
2023-12-22T04:33:27.594Z,4.60
2023-12-22T04:35:54.231Z,4.50
2023-12-22T04:38:20.819Z,4.40
2023-12-22T04:40:47.432Z,4.40
2023-12-22T04:43:14.073Z,4.30
2023-12-22T04:45:40.751Z,4.20
2023-12-22T04:48:07.936Z,4.10
2023-12-22T04:50:34.590Z,4.10
2023-12-22T04:53:01.255Z,4.10
2023-12-22T04:55:27.970Z,4.10
2023-12-22T04:57:54.709Z,4.10
2023-12-22T05:00:21.504Z,4.10
2023-12-22T05:02:48.194Z,4.10
2023-12-22T05:05:14.909Z,4.20
2023-12-22T05:07:41.857Z,4.40
2023-12-22T05:10:09.584Z,4.50
2023-12-22T05:12:36.227Z,4.60
2023-12-22T05:15:03.768Z,4.70
2023-12-22T05:17:30.847Z,4.80
2023-12-22T05:19:57.633Z,4.80
2023-12-22T05:22:24.561Z,4.90
2023-12-22T05:24:51.195Z,4.90
2023-12-22T05:27:17.823Z,4.90
2023-12-22T05:29:44.422Z,4.90
2023-12-22T05:32:11.040Z,4.90
2023-12-22T05:34:37.777Z,4.90
2023-12-22T05:37:04.898Z,5.00
2023-12-22T05:39:31.526Z,5.00
2023-12-22T05:41:58.624Z,5.00
2023-12-22T05:44:25.319Z,5.00
2023-12-22T05:46:52.116Z,5.10
2023-12-22T05:49:19.114Z,5.10
2023-12-22T05:51:45.903Z,5.10
2023-12-22T05:54:12.552Z,5.10
2023-12-22T05:56:39.316Z,5.10
2023-12-22T05:59:06.803Z,5.00
2023-12-22T06:01:33.460Z,4.90
2023-12-22T06:04:00.153Z,4.70
2023-12-22T06:06:28.492Z,4.60
2023-12-22T06:08:55.224Z,4.60
2023-12-22T06:11:22.097Z,4.50
2023-12-22T06:13:49.719Z,4.50
2023-12-22T06:16:19.794Z,4.40
2023-12-22T06:18:46.789Z,4.40
2023-12-22T06:21:13.759Z,4.40
2023-12-22T06:23:40.479Z,4.50
2023-12-22T06:26:11.950Z,4.50
2023-12-22T06:28:40.661Z,4.60
2023-12-22T06:31:08.429Z,4.60
2023-12-22T06:33:35.203Z,4.70
2023-12-22T06:36:01.943Z,4.70
2023-12-22T06:38:28.829Z,4.80
2023-12-22T06:40:56.232Z,4.80
2023-12-22T06:43:22.926Z,4.90
2023-12-22T06:45:49.655Z,4.90
2023-12-22T06:48:16.410Z,4.90
2023-12-22T06:50:46.025Z,5.00
2023-12-22T06:53:21.800Z,5.10
2023-12-22T06:55:52.701Z,5.10
2023-12-22T06:58:22.163Z,5.20
2023-12-22T07:00:48.890Z,5.30
2023-12-22T07:03:17.214Z,5.40
2023-12-22T07:05:44.138Z,5.40
2023-12-22T07:08:16.059Z,5.40
2023-12-22T07:10:42.726Z,5.50
2023-12-22T07:13:12.073Z,5.50
2023-12-22T07:15:38.704Z,5.50
2023-12-22T07:18:05.974Z,5.50
2023-12-22T07:20:32.647Z,5.60
2023-12-22T07:22:59.324Z,5.60
2023-12-22T07:25:26.113Z,5.70
2023-12-22T07:27:53.883Z,5.70
2023-12-22T07:30:21.739Z,5.80
2023-12-22T07:32:54.162Z,5.80
2023-12-22T07:35:21.005Z,5.80
2023-12-22T07:37:48.199Z,5.80
2023-12-22T07:40:16.874Z,5.80
2023-12-22T07:42:44.370Z,5.80
2023-12-22T07:45:11.096Z,5.80
2023-12-22T07:47:38.315Z,5.90
2023-12-22T07:50:09.396Z,5.90
2023-12-22T07:52:39.813Z,6.00
2023-12-22T07:55:11.564Z,6.00
2023-12-22T07:57:42.085Z,6.00
2023-12-22T08:00:12.472Z,6.00
2023-12-22T08:02:39.329Z,6.00
2023-12-22T08:05:06.467Z,6.10
2023-12-22T08:07:33.171Z,6.20
2023-12-22T08:09:59.809Z,6.20
2023-12-22T08:12:27.170Z,6.10
2023-12-22T08:14:53.796Z,6.20
2023-12-22T08:17:20.545Z,6.10
2023-12-22T08:19:49.397Z,6.10
2023-12-22T08:22:17.691Z,6.10
2023-12-22T08:24:45.019Z,6.20
2023-12-22T08:27:12.108Z,6.20
2023-12-22T08:29:45.732Z,6.20
2023-12-22T08:32:12.524Z,6.20
2023-12-22T08:34:40.266Z,6.20
2023-12-22T08:37:06.964Z,6.30
2023-12-22T08:39:33.909Z,6.30
2023-12-22T08:42:01.107Z,6.40
2023-12-22T08:44:28.299Z,6.40
2023-12-22T08:46:55.025Z,6.40
2023-12-22T08:49:22.573Z,6.40
2023-12-22T08:51:49.425Z,6.40
2023-12-22T08:54:16.477Z,6.30
2023-12-22T08:56:43.527Z,6.30
2023-12-22T08:59:10.880Z,6.30
2023-12-22T09:01:37.592Z,6.30
2023-12-22T09:04:04.931Z,6.30
2023-12-22T09:06:33.837Z,6.20
2023-12-22T09:09:00.428Z,6.20
2023-12-22T09:11:27.269Z,6.20
2023-12-22T09:13:53.898Z,6.20
2023-12-22T09:16:24.843Z,6.20
2023-12-22T09:18:52.487Z,6.10
2023-12-22T09:21:20.118Z,6.10
2023-12-22T09:23:47.712Z,6.00
2023-12-22T09:26:15.176Z,6.00
2023-12-22T09:28:42.972Z,6.00
2023-12-22T09:31:10.464Z,6.00
2023-12-22T09:33:37.560Z,6.00
2023-12-22T09:36:04.922Z,6.00
2023-12-22T09:38:31.549Z,6.00
2023-12-22T09:40:59.558Z,6.00
2023-12-22T09:43:26.239Z,6.00
2023-12-22T09:45:54.326Z,6.00
2023-12-22T09:48:28.569Z,6.10
2023-12-22T09:50:56.222Z,6.00
2023-12-22T09:53:25.297Z,6.00
2023-12-22T09:55:53.411Z,6.00
2023-12-22T09:58:20.395Z,6.10
2023-12-22T10:00:49.583Z,6.20
2023-12-22T10:03:17.563Z,6.20
2023-12-22T10:05:52.576Z,6.20
2023-12-22T10:08:22.963Z,6.30
2023-12-22T10:10:53.749Z,6.30
2023-12-22T10:13:30.727Z,6.40
2023-12-22T10:16:01.804Z,6.40
2023-12-22T10:18:38.668Z,6.40
2023-12-22T10:21:08.650Z,6.50
2023-12-22T10:23:45.248Z,6.60
2023-12-22T10:26:19.203Z,6.70
2023-12-22T10:28:55.502Z,6.80
2023-12-22T10:31:41.448Z,6.80
2023-12-22T10:34:10.477Z,6.80
2023-12-22T10:36:47.040Z,6.80
2023-12-22T10:39:23.797Z,6.70
2023-12-22T10:41:53.652Z,6.70
2023-12-22T10:44:24.978Z,6.70
2023-12-22T10:46:55.935Z,6.80
2023-12-22T10:49:26.643Z,6.80
2023-12-22T10:51:58.747Z,6.80
2023-12-22T10:54:33.264Z,6.80
2023-12-22T10:57:11.923Z,6.80
2023-12-22T10:59:57.045Z,6.80
2023-12-22T11:02:31.889Z,6.80
2023-12-22T11:05:08.568Z,6.90
2023-12-22T11:07:38.253Z,7.00
2023-12-22T11:10:07.812Z,7.00
2023-12-22T11:12:39.097Z,7.00
2023-12-22T11:15:13.242Z,7.00
2023-12-22T11:17:43.143Z,7.00
2023-12-22T11:20:19.476Z,7.10
2023-12-22T11:22:46.771Z,7.20
2023-12-22T11:25:17.496Z,7.20
2023-12-22T11:27:47.934Z,7.20
2023-12-22T11:30:15.557Z,7.30
2023-12-22T11:32:45.316Z,7.30
2023-12-22T11:35:12.404Z,7.30
2023-12-22T11:37:40.285Z,7.40
2023-12-22T11:40:09.703Z,7.40
2023-12-22T11:42:47.322Z,7.30
2023-12-22T11:45:17.062Z,7.30
2023-12-22T11:47:45.218Z,7.40
2023-12-22T11:50:12.880Z,7.50
2023-12-22T11:52:40.810Z,7.50
2023-12-22T11:55:08.468Z,7.40
2023-12-22T11:57:38.726Z,7.30
2023-12-22T12:00:08.814Z,7.30
2023-12-22T12:02:37.504Z,7.30
2023-12-22T12:05:05.462Z,7.20
2023-12-22T12:07:48.705Z,7.20
2023-12-22T12:10:34.397Z,7.20
2023-12-22T12:13:08.663Z,7.20
2023-12-22T12:15:36.286Z,7.30
2023-12-22T12:18:06.895Z,7.30
2023-12-22T12:20:34.123Z,7.20
2023-12-22T12:23:02.921Z,7.20
2023-12-22T12:25:36.013Z,7.20
2023-12-22T12:28:04.908Z,7.20
2023-12-22T12:30:33.198Z,7.20
2023-12-22T12:33:07.802Z,7.30
2023-12-22T12:35:36.638Z,7.30
2023-12-22T12:38:05.810Z,7.40
2023-12-22T12:40:35.051Z,7.50
2023-12-22T12:43:06.295Z,7.50
2023-12-22T12:45:33.063Z,7.70
2023-12-22T12:48:02.373Z,7.80
2023-12-22T12:50:32.340Z,7.80
2023-12-22T12:53:00.442Z,7.90
2023-12-22T12:55:27.524Z,7.90
2023-12-22T12:57:56.502Z,7.90
2023-12-22T13:00:27.053Z,8.00
2023-12-22T13:03:07.735Z,7.90
2023-12-22T13:05:37.694Z,7.90
2023-12-22T13:08:14.209Z,7.90
2023-12-22T13:10:42.603Z,8.00
2023-12-22T13:13:09.642Z,8.00
2023-12-22T13:15:36.343Z,8.00
2023-12-22T13:18:10.784Z,8.00
2023-12-22T13:20:37.944Z,8.10
2023-12-22T13:23:04.865Z,8.10
2023-12-22T13:25:42.368Z,8.10
2023-12-22T13:28:09.122Z,8.10
2023-12-22T13:30:45.098Z,8.10
2023-12-22T13:33:12.459Z,8.10
2023-12-22T13:35:42.504Z,8.10
2023-12-22T13:38:11.597Z,8.10
2023-12-22T13:40:39.851Z,8.00
2023-12-22T13:43:08.803Z,8.10
2023-12-22T13:45:36.075Z,8.10
2023-12-22T13:48:03.255Z,8.10
2023-12-22T13:50:30.140Z,8.20
2023-12-22T13:52:57.089Z,8.20
2023-12-22T13:55:24.374Z,8.20
2023-12-22T13:58:01.662Z,8.20
2023-12-22T14:00:30.375Z,8.30
2023-12-22T14:02:57.795Z,8.30
2023-12-22T14:05:24.840Z,8.30
2023-12-22T14:07:52.249Z,8.30
2023-12-22T14:10:19.129Z,8.30
2023-12-22T14:12:45.819Z,8.30
2023-12-22T14:15:13.582Z,8.20
2023-12-22T14:17:40.470Z,8.20
2023-12-22T14:20:10.825Z,8.30
2023-12-22T14:22:38.492Z,8.40
2023-12-22T14:25:06.172Z,8.30
2023-12-22T14:27:32.856Z,8.30
2023-12-22T14:29:59.566Z,8.30
2023-12-22T14:32:26.310Z,8.30
2023-12-22T14:34:53.221Z,8.30
2023-12-22T14:37:20.816Z,8.40
2023-12-22T14:39:50.714Z,8.40
2023-12-22T14:42:17.401Z,8.40
2023-12-22T14:44:44.595Z,8.40
2023-12-22T14:47:14.040Z,8.40
2023-12-22T14:49:41.430Z,8.40
2023-12-22T14:52:09.194Z,8.40
2023-12-22T14:54:35.832Z,8.40
2023-12-22T14:57:02.493Z,8.30
2023-12-22T14:59:29.447Z,8.30
2023-12-22T15:01:56.203Z,8.30
2023-12-22T15:04:22.996Z,8.30
2023-12-22T15:06:56.196Z,8.20
2023-12-22T15:09:28.071Z,8.30
2023-12-22T15:11:56.166Z,8.20
2023-12-22T15:14:23.261Z,8.30
2023-12-22T15:16:52.703Z,8.30
2023-12-22T15:19:19.575Z,8.30
2023-12-22T15:21:47.527Z,8.30
2023-12-22T15:24:14.159Z,8.40
2023-12-22T15:26:40.809Z,8.40
2023-12-22T15:29:07.658Z,8.40
2023-12-22T15:31:38.171Z,8.40
2023-12-22T15:34:07.225Z,8.40
2023-12-22T15:36:34.872Z,8.40
2023-12-22T15:39:01.836Z,8.40
2023-12-22T15:41:31.906Z,8.40
2023-12-22T15:43:58.849Z,8.30
2023-12-22T15:46:25.823Z,8.30
2023-12-22T15:48:52.586Z,8.30
2023-12-22T15:51:20.926Z,8.30
2023-12-22T15:53:48.269Z,8.30
2023-12-22T15:56:16.601Z,8.20
2023-12-22T15:58:44.331Z,8.30
2023-12-22T16:01:15.992Z,8.30
2023-12-22T16:03:48.461Z,8.30
2023-12-22T16:06:15.215Z,8.20
2023-12-22T16:08:45.827Z,8.20
2023-12-22T16:11:12.632Z,8.20
2023-12-22T16:13:42.109Z,8.10
2023-12-22T16:16:15.118Z,8.10
2023-12-22T16:18:41.773Z,8.10
2023-12-22T16:21:08.430Z,8.10
2023-12-22T16:23:35.046Z,8.10
2023-12-22T16:26:03.547Z,8.10
2023-12-22T16:28:30.530Z,8.10
2023-12-22T16:30:57.481Z,8.10
2023-12-22T16:33:24.216Z,8.10
2023-12-22T16:35:50.932Z,8.10
2023-12-22T16:38:17.736Z,8.20
2023-12-22T16:40:45.627Z,8.20
2023-12-22T16:43:13.110Z,8.20
2023-12-22T16:45:43.946Z,8.20
2023-12-22T16:48:11.271Z,8.20
2023-12-22T16:50:38.026Z,8.10
2023-12-22T16:53:04.996Z,8.20
2023-12-22T16:55:31.897Z,8.20
2023-12-22T16:57:58.775Z,8.20
2023-12-22T17:00:26.557Z,8.20
2023-12-22T17:02:53.608Z,8.20
2023-12-22T17:05:21.051Z,8.20
2023-12-22T17:07:48.441Z,8.30
2023-12-22T17:10:15.399Z,8.30
2023-12-22T17:12:42.244Z,8.30
2023-12-22T17:15:10.668Z,8.30
2023-12-22T17:17:38.103Z,8.30
2023-12-22T17:20:07.253Z,8.30
2023-12-22T17:22:33.989Z,8.30
2023-12-22T17:25:00.763Z,8.30
2023-12-22T17:27:27.387Z,8.20
2023-12-22T17:29:54.006Z,8.20
2023-12-22T17:32:20.639Z,8.20
2023-12-22T17:34:47.403Z,8.20
2023-12-22T17:37:14.076Z,8.20
2023-12-22T17:39:40.698Z,8.10
2023-12-22T17:42:07.417Z,8.20
2023-12-22T17:44:34.049Z,8.30
2023-12-22T17:47:05.645Z,8.30
2023-12-22T17:49:33.547Z,8.30
2023-12-22T17:52:00.450Z,8.30
2023-12-22T17:54:27.214Z,8.30
2023-12-22T17:56:54.276Z,8.30
2023-12-22T17:59:23.889Z,8.30
2023-12-22T18:01:51.029Z,8.30
2023-12-22T18:04:17.988Z,8.30
2023-12-22T18:06:44.792Z,8.30
2023-12-22T18:09:12.215Z,8.30
2023-12-22T18:11:42.995Z,8.30
2023-12-22T18:14:10.628Z,8.30
2023-12-22T18:16:42.557Z,8.40
2023-12-22T18:19:10.382Z,8.40
2023-12-22T18:21:37.470Z,8.40
2023-12-22T18:24:04.992Z,8.40
2023-12-22T18:26:31.667Z,8.30
2023-12-22T18:28:58.436Z,8.30
2023-12-22T18:31:25.122Z,8.40
2023-12-22T18:33:52.070Z,8.40
2023-12-22T18:36:18.947Z,8.50
2023-12-22T18:38:45.921Z,8.50
2023-12-22T18:41:12.658Z,8.40
2023-12-22T18:43:40.173Z,8.40
2023-12-22T18:46:09.736Z,8.50
2023-12-22T18:48:36.848Z,8.50
2023-12-22T18:51:04.141Z,8.40
2023-12-22T18:53:30.792Z,8.40
2023-12-22T18:55:58.017Z,8.40
2023-12-22T18:58:25.009Z,8.40
2023-12-22T19:00:51.675Z,8.50
2023-12-22T19:03:18.478Z,8.50
2023-12-22T19:05:45.690Z,8.50
2023-12-22T19:08:12.517Z,8.50
2023-12-22T19:10:39.410Z,8.50
2023-12-22T19:13:06.151Z,8.50
2023-12-22T19:15:33.421Z,8.60
2023-12-22T19:18:00.748Z,8.60
2023-12-22T19:20:27.669Z,8.60
2023-12-22T19:22:57.101Z,8.70
2023-12-22T19:25:23.970Z,8.60
2023-12-22T19:27:51.184Z,8.60
2023-12-22T19:30:18.033Z,8.60
2023-12-22T19:32:46.243Z,8.60
2023-12-22T19:35:13.622Z,8.60
2023-12-22T19:37:40.598Z,8.60
2023-12-22T19:40:08.414Z,8.70
2023-12-22T19:42:35.169Z,8.70
2023-12-22T19:45:02.438Z,8.70
2023-12-22T19:47:29.114Z,8.70
2023-12-22T19:49:55.839Z,8.60
2023-12-22T19:52:22.574Z,8.70
2023-12-22T19:54:49.329Z,8.70
2023-12-22T19:57:16.811Z,8.60
2023-12-22T19:59:43.576Z,8.70
2023-12-22T20:02:10.283Z,8.70
2023-12-22T20:04:37.266Z,8.70
2023-12-22T20:07:04.216Z,8.70
2023-12-22T20:09:31.469Z,8.70
2023-12-22T20:11:58.257Z,8.70
2023-12-22T20:14:26.399Z,8.70
2023-12-22T20:16:54.005Z,8.60
2023-12-22T20:19:21.230Z,8.70
2023-12-22T20:21:48.007Z,8.70
2023-12-22T20:24:14.948Z,8.80
2023-12-22T20:26:41.741Z,8.80
2023-12-22T20:29:09.665Z,8.70
2023-12-22T20:31:37.974Z,8.70
2023-12-22T20:34:04.709Z,8.70
2023-12-22T20:36:31.597Z,8.70
2023-12-22T20:38:58.354Z,8.70
2023-12-22T20:41:25.205Z,8.60
2023-12-22T20:43:51.935Z,8.70
2023-12-22T20:46:18.600Z,8.60
2023-12-22T20:48:45.402Z,8.60
2023-12-22T20:51:12.184Z,8.60
2023-12-22T20:53:39.289Z,8.50
2023-12-22T20:56:21.181Z,8.40
2023-12-22T20:58:49.274Z,8.50
2023-12-22T21:01:16.660Z,8.50
2023-12-22T21:03:43.744Z,8.50
2023-12-22T21:06:10.720Z,8.40
2023-12-22T21:08:38.306Z,8.40
2023-12-22T21:11:05.164Z,8.40
2023-12-22T21:13:34.868Z,8.40
2023-12-22T21:16:06.675Z,8.50
2023-12-22T21:18:34.328Z,8.40
2023-12-22T21:21:05.783Z,8.50
2023-12-22T21:23:32.722Z,8.50
2023-12-22T21:26:00.012Z,8.50
2023-12-22T21:28:27.210Z,8.50
2023-12-22T21:30:54.403Z,8.60
2023-12-22T21:33:21.218Z,8.60
2023-12-22T21:35:47.895Z,8.60
2023-12-22T21:38:14.553Z,8.50
2023-12-22T21:40:41.266Z,8.40
2023-12-22T21:43:07.931Z,8.10
2023-12-22T21:45:34.554Z,7.80
2023-12-22T21:48:01.284Z,7.60
2023-12-22T21:50:27.918Z,7.50
2023-12-22T21:52:54.677Z,7.50
2023-12-22T21:55:21.887Z,7.50
2023-12-22T21:57:48.814Z,7.40
2023-12-22T22:00:16.776Z,7.40
2023-12-22T22:02:43.571Z,7.30
2023-12-22T22:05:11.801Z,7.30
2023-12-22T22:07:40.799Z,7.30
2023-12-22T22:10:08.126Z,7.20
2023-12-22T22:12:34.823Z,7.10
2023-12-22T22:15:03.846Z,7.10
2023-12-22T22:17:30.589Z,7.10
2023-12-22T22:19:57.321Z,7.20
2023-12-22T22:22:24.037Z,7.20
2023-12-22T22:24:50.729Z,7.30
2023-12-22T22:27:17.354Z,7.30
2023-12-22T22:29:43.986Z,7.40
2023-12-22T22:32:10.709Z,7.40
2023-12-22T22:34:37.787Z,7.40
2023-12-22T22:37:04.630Z,7.50
2023-12-22T22:39:31.692Z,7.50
2023-12-22T22:41:58.685Z,7.50
2023-12-22T22:44:25.608Z,7.50
2023-12-22T22:46:54.498Z,7.60
2023-12-22T22:49:21.386Z,7.50
2023-12-22T22:51:48.188Z,7.50
2023-12-22T22:54:14.884Z,7.50
2023-12-22T22:56:43.270Z,7.40
2023-12-22T22:59:10.619Z,7.40
2023-12-22T23:01:37.642Z,7.40
2023-12-22T23:04:04.693Z,7.30
2023-12-22T23:06:31.446Z,7.30
2023-12-22T23:09:01.574Z,7.30
2023-12-22T23:11:28.322Z,7.20
2023-12-22T23:13:55.058Z,7.20
2023-12-22T23:16:21.837Z,7.20
2023-12-22T23:18:48.586Z,7.20
2023-12-22T23:21:15.267Z,7.10
2023-12-22T23:23:42.546Z,7.20
2023-12-22T23:26:09.271Z,7.20
2023-12-22T23:28:36.038Z,7.10
2023-12-22T23:31:05.556Z,7.10
2023-12-22T23:33:32.550Z,7.10
2023-12-22T23:36:06.527Z,7.10
2023-12-22T23:38:40.760Z,7.10
2023-12-22T23:41:10.015Z,7.00
2023-12-22T23:43:36.894Z,7.00
2023-12-22T23:46:04.505Z,7.00
2023-12-22T23:48:31.319Z,6.90
2023-12-22T23:51:01.573Z,6.90
2023-12-22T23:53:28.355Z,6.90
2023-12-22T23:55:55.066Z,6.90
2023-12-22T23:58:22.027Z,6.80
